sensor_id;sensor_type;location;lat;lon;timestamp;P1;durP1;ratioP1;P2;durP2;ratioP2
34902;SDS011;21114;44.840;0.214;2023-06-10T00:00:27;1.92;;;1.60;;
34902;SDS011;21114;44.840;0.214;2023-06-10T00:03:41;2.97;;;1.80;;
34902;SDS011;21114;44.840;0.214;2023-06-10T00:06:09;3.30;;;1.58;;
34902;SDS011;21114;44.840;0.214;2023-06-10T00:08:35;1.95;;;1.65;;
34902;SDS011;21114;44.840;0.214;2023-06-10T00:11:50;2.53;;;1.40;;
34902;SDS011;21114;44.840;0.214;2023-06-10T00:15:07;2.67;;;1.42;;
34902;SDS011;21114;44.840;0.214;2023-06-10T00:18:21;3.35;;;1.67;;
34902;SDS011;21114;44.840;0.214;2023-06-10T00:21:39;2.97;;;1.60;;
34902;SDS011;21114;44.840;0.214;2023-06-10T00:24:55;2.33;;;1.40;;
34902;SDS011;21114;44.840;0.214;2023-06-10T00:28:09;1.80;;;1.67;;
34902;SDS011;21114;44.840;0.214;2023-06-10T00:31:24;2.80;;;1.70;;
34902;SDS011;21114;44.840;0.214;2023-06-10T00:33:51;4.10;;;1.83;;
34902;SDS011;21114;44.840;0.214;2023-06-10T00:36:17;3.28;;;1.45;;
34902;SDS011;21114;44.840;0.214;2023-06-10T00:39:19;1.43;;;1.33;;
34902;SDS011;21114;44.840;0.214;2023-06-10T00:41:45;2.60;;;1.75;;
34902;SDS011;21114;44.840;0.214;2023-06-10T00:45:00;5.57;;;1.30;;
34902;SDS011;21114;44.840;0.214;2023-06-10T00:47:26;3.50;;;1.80;;
34902;SDS011;21114;44.840;0.214;2023-06-10T00:50:41;2.78;;;1.35;;
34902;SDS011;21114;44.840;0.214;2023-06-10T00:53:07;3.45;;;1.63;;
34902;SDS011;21114;44.840;0.214;2023-06-10T00:56:24;1.58;;;1.40;;
34902;SDS011;21114;44.840;0.214;2023-06-10T00:58:50;2.05;;;1.45;;
34902;SDS011;21114;44.840;0.214;2023-06-10T01:02:05;2.08;;;1.33;;
34902;SDS011;21114;44.840;0.214;2023-06-10T01:05:20;5.05;;;1.50;;
34902;SDS011;21114;44.840;0.214;2023-06-10T01:08:55;2.53;;;1.75;;
34902;SDS011;21114;44.840;0.214;2023-06-10T01:12:16;2.67;;;1.65;;
34902;SDS011;21114;44.840;0.214;2023-06-10T01:15:37;2.75;;;1.85;;
34902;SDS011;21114;44.840;0.214;2023-06-10T01:18:51;2.15;;;1.60;;
34902;SDS011;21114;44.840;0.214;2023-06-10T01:22:08;1.63;;;1.33;;
34902;SDS011;21114;44.840;0.214;2023-06-10T01:24:35;2.78;;;1.63;;
34902;SDS011;21114;44.840;0.214;2023-06-10T01:27:54;2.15;;;1.48;;
34902;SDS011;21114;44.840;0.214;2023-06-10T01:33:41;2.03;;;1.55;;
34902;SDS011;21114;44.840;0.214;2023-06-10T01:36:56;13.15;;;2.63;;
34902;SDS011;21114;44.840;0.214;2023-06-10T01:40:12;2.47;;;1.98;;
34902;SDS011;21114;44.840;0.214;2023-06-10T01:43:20;4.13;;;1.80;;
34902;SDS011;21114;44.840;0.214;2023-06-10T01:46:34;3.05;;;2.30;;
34902;SDS011;21114;44.840;0.214;2023-06-10T01:49:00;4.03;;;1.90;;
34902;SDS011;21114;44.840;0.214;2023-06-10T01:51:26;1.90;;;1.70;;
34902;SDS011;21114;44.840;0.214;2023-06-10T01:53:52;4.93;;;1.98;;
34902;SDS011;21114;44.840;0.214;2023-06-10T01:56:18;5.10;;;1.85;;
34902;SDS011;21114;44.840;0.214;2023-06-10T01:58:45;2.22;;;1.63;;
34902;SDS011;21114;44.840;0.214;2023-06-10T02:02:01;4.60;;;3.05;;
34902;SDS011;21114;44.840;0.214;2023-06-10T02:05:16;6.13;;;1.98;;
34902;SDS011;21114;44.840;0.214;2023-06-10T02:08:25;3.55;;;2.20;;
34902;SDS011;21114;44.840;0.214;2023-06-10T02:10:52;3.10;;;1.92;;
34902;SDS011;21114;44.840;0.214;2023-06-10T02:13:18;4.13;;;2.05;;
34902;SDS011;21114;44.840;0.214;2023-06-10T02:15:45;6.07;;;4.20;;
34902;SDS011;21114;44.840;0.214;2023-06-10T02:18:59;4.97;;;1.70;;
34902;SDS011;21114;44.840;0.214;2023-06-10T02:22:20;3.60;;;1.70;;
34902;SDS011;21114;44.840;0.214;2023-06-10T02:25:34;3.15;;;1.45;;
34902;SDS011;21114;44.840;0.214;2023-06-10T02:28:00;2.03;;;1.85;;
34902;SDS011;21114;44.840;0.214;2023-06-10T02:31:15;3.30;;;1.90;;
34902;SDS011;21114;44.840;0.214;2023-06-10T02:33:43;6.72;;;2.92;;
34902;SDS011;21114;44.840;0.214;2023-06-10T02:36:58;2.75;;;1.52;;
34902;SDS011;21114;44.840;0.214;2023-06-10T02:39:24;4.78;;;2.70;;
34902;SDS011;21114;44.840;0.214;2023-06-10T02:42:39;2.72;;;1.90;;
34902;SDS011;21114;44.840;0.214;2023-06-10T02:45:05;2.38;;;2.17;;
34902;SDS011;21114;44.840;0.214;2023-06-10T02:48:19;2.20;;;1.65;;
34902;SDS011;21114;44.840;0.214;2023-06-10T02:51:26;1.67;;;1.58;;
34902;SDS011;21114;44.840;0.214;2023-06-10T02:54:23;4.90;;;1.77;;
34902;SDS011;21114;44.840;0.214;2023-06-10T02:56:50;3.50;;;1.83;;
34902;SDS011;21114;44.840;0.214;2023-06-10T03:00:05;3.28;;;1.75;;
34902;SDS011;21114;44.840;0.214;2023-06-10T03:02:36;2.70;;;1.70;;
34902;SDS011;21114;44.840;0.214;2023-06-10T03:05:52;3.45;;;1.45;;
34902;SDS011;21114;44.840;0.214;2023-06-10T03:09:07;5.03;;;1.80;;
34902;SDS011;21114;44.840;0.214;2023-06-10T03:11:33;2.45;;;2.00;;
34902;SDS011;21114;44.840;0.214;2023-06-10T03:13:59;4.45;;;2.45;;
34902;SDS011;21114;44.840;0.214;2023-06-10T03:17:13;4.70;;;3.15;;
34902;SDS011;21114;44.840;0.214;2023-06-10T03:19:39;7.72;;;3.63;;
34902;SDS011;21114;44.840;0.214;2023-06-10T03:22:15;14.93;;;4.00;;
34902;SDS011;21114;44.840;0.214;2023-06-10T03:25:31;5.45;;;3.28;;
34902;SDS011;21114;44.840;0.214;2023-06-10T03:28:46;4.00;;;2.92;;
34902;SDS011;21114;44.840;0.214;2023-06-10T03:31:13;4.32;;;2.58;;
34902;SDS011;21114;44.840;0.214;2023-06-10T03:34:28;4.25;;;3.08;;
34902;SDS011;21114;44.840;0.214;2023-06-10T03:36:55;7.00;;;3.95;;
34902;SDS011;21114;44.840;0.214;2023-06-10T03:39:21;3.88;;;2.72;;
34902;SDS011;21114;44.840;0.214;2023-06-10T03:42:36;3.60;;;2.88;;
34902;SDS011;21114;44.840;0.214;2023-06-10T03:45:02;4.93;;;3.22;;
34902;SDS011;21114;44.840;0.214;2023-06-10T03:48:17;5.10;;;3.08;;
34902;SDS011;21114;44.840;0.214;2023-06-10T03:50:43;3.65;;;2.45;;
34902;SDS011;21114;44.840;0.214;2023-06-10T03:53:09;4.38;;;3.33;;
34902;SDS011;21114;44.840;0.214;2023-06-10T03:55:35;4.82;;;2.42;;
34902;SDS011;21114;44.840;0.214;2023-06-10T03:58:01;5.20;;;2.40;;
34902;SDS011;21114;44.840;0.214;2023-06-10T04:01:16;3.97;;;2.30;;
34902;SDS011;21114;44.840;0.214;2023-06-10T04:03:46;5.32;;;2.88;;
34902;SDS011;21114;44.840;0.214;2023-06-10T04:07:01;4.60;;;3.15;;
34902;SDS011;21114;44.840;0.214;2023-06-10T04:10:07;5.32;;;3.03;;
34902;SDS011;21114;44.840;0.214;2023-06-10T04:13:22;7.50;;;5.00;;
34902;SDS011;21114;44.840;0.214;2023-06-10T04:15:48;7.10;;;3.55;;
34902;SDS011;21114;44.840;0.214;2023-06-10T04:18:14;3.33;;;2.90;;
34902;SDS011;21114;44.840;0.214;2023-06-10T04:20:41;7.93;;;3.38;;
34902;SDS011;21114;44.840;0.214;2023-06-10T04:23:55;8.77;;;4.57;;
34902;SDS011;21114;44.840;0.214;2023-06-10T04:26:21;9.73;;;5.05;;
34902;SDS011;21114;44.840;0.214;2023-06-10T04:29:36;9.02;;;5.88;;
34902;SDS011;21114;44.840;0.214;2023-06-10T04:32:50;10.48;;;5.50;;
34902;SDS011;21114;44.840;0.214;2023-06-10T04:35:17;9.57;;;6.30;;
34902;SDS011;21114;44.840;0.214;2023-06-10T04:38:31;5.88;;;4.60;;
34902;SDS011;21114;44.840;0.214;2023-06-10T04:41:46;6.95;;;5.20;;
34902;SDS011;21114;44.840;0.214;2023-06-10T04:45:00;5.25;;;3.28;;
34902;SDS011;21114;44.840;0.214;2023-06-10T04:47:28;5.60;;;3.42;;
34902;SDS011;21114;44.840;0.214;2023-06-10T04:49:58;5.20;;;3.58;;
34902;SDS011;21114;44.840;0.214;2023-06-10T04:53:13;5.28;;;4.70;;
34902;SDS011;21114;44.840;0.214;2023-06-10T04:55:40;7.15;;;4.80;;
34902;SDS011;21114;44.840;0.214;2023-06-10T04:58:55;7.72;;;5.00;;
34902;SDS011;21114;44.840;0.214;2023-06-10T05:01:21;5.80;;;5.15;;
34902;SDS011;21114;44.840;0.214;2023-06-10T05:04:22;10.48;;;5.78;;
34902;SDS011;21114;44.840;0.214;2023-06-10T05:06:49;8.20;;;6.28;;
34902;SDS011;21114;44.840;0.214;2023-06-10T05:10:03;8.20;;;5.40;;
34902;SDS011;21114;44.840;0.214;2023-06-10T05:13:18;11.48;;;5.82;;
34902;SDS011;21114;44.840;0.214;2023-06-10T05:15:44;9.18;;;5.55;;
34902;SDS011;21114;44.840;0.214;2023-06-10T05:18:58;10.25;;;6.53;;
34902;SDS011;21114;44.840;0.214;2023-06-10T05:22:13;9.25;;;6.85;;
34902;SDS011;21114;44.840;0.214;2023-06-10T05:24:41;9.50;;;6.30;;
34902;SDS011;21114;44.840;0.214;2023-06-10T05:27:08;9.73;;;8.27;;
34902;SDS011;21114;44.840;0.214;2023-06-10T05:30:23;9.18;;;7.40;;
34902;SDS011;21114;44.840;0.214;2023-06-10T05:32:50;7.40;;;6.70;;
34902;SDS011;21114;44.840;0.214;2023-06-10T05:36:05;9.52;;;7.35;;
34902;SDS011;21114;44.840;0.214;2023-06-10T05:38:31;9.35;;;7.07;;
34902;SDS011;21114;44.840;0.214;2023-06-10T05:41:45;8.70;;;6.55;;
34902;SDS011;21114;44.840;0.214;2023-06-10T05:44:11;12.38;;;8.00;;
34902;SDS011;21114;44.840;0.214;2023-06-10T05:46:37;9.50;;;8.45;;
34902;SDS011;21114;44.840;0.214;2023-06-10T05:49:03;11.55;;;9.00;;
34902;SDS011;21114;44.840;0.214;2023-06-10T05:52:18;10.75;;;7.28;;
34902;SDS011;21114;44.840;0.214;2023-06-10T05:55:20;7.97;;;7.18;;
34902;SDS011;21114;44.840;0.214;2023-06-10T05:57:47;9.65;;;8.00;;
34902;SDS011;21114;44.840;0.214;2023-06-10T06:01:01;7.88;;;7.07;;
34902;SDS011;21114;44.840;0.214;2023-06-10T06:03:27;11.20;;;7.45;;
34902;SDS011;21114;44.840;0.214;2023-06-10T06:05:53;7.50;;;6.70;;
34902;SDS011;21114;44.840;0.214;2023-06-10T06:08:19;10.38;;;7.60;;
34902;SDS011;21114;44.840;0.214;2023-06-10T06:10:45;8.02;;;7.32;;
34902;SDS011;21114;44.840;0.214;2023-06-10T06:13:12;7.93;;;6.68;;
34902;SDS011;21114;44.840;0.214;2023-06-10T06:15:38;8.75;;;7.85;;
34902;SDS011;21114;44.840;0.214;2023-06-10T06:18:05;9.25;;;8.25;;
34902;SDS011;21114;44.840;0.214;2023-06-10T06:21:19;9.52;;;7.25;;
34902;SDS011;21114;44.840;0.214;2023-06-10T06:24:26;10.95;;;7.05;;
34902;SDS011;21114;44.840;0.214;2023-06-10T06:26:52;6.90;;;6.30;;
34902;SDS011;21114;44.840;0.214;2023-06-10T06:29:18;7.80;;;7.03;;
34902;SDS011;21114;44.840;0.214;2023-06-10T06:31:44;10.32;;;7.57;;
34902;SDS011;21114;44.840;0.214;2023-06-10T06:34:25;7.68;;;6.82;;
34902;SDS011;21114;44.840;0.214;2023-06-10T06:36:51;6.95;;;6.32;;
34902;SDS011;21114;44.840;0.214;2023-06-10T06:40:05;12.27;;;6.68;;
34902;SDS011;21114;44.840;0.214;2023-06-10T06:43:20;8.07;;;6.57;;
34902;SDS011;21114;44.840;0.214;2023-06-10T06:45:46;6.97;;;6.20;;
34902;SDS011;21114;44.840;0.214;2023-06-10T06:48:12;6.82;;;5.65;;
34902;SDS011;21114;44.840;0.214;2023-06-10T06:50:38;7.03;;;5.55;;
34902;SDS011;21114;44.840;0.214;2023-06-10T06:53:28;7.70;;;5.90;;
34902;SDS011;21114;44.840;0.214;2023-06-10T06:55:54;10.88;;;7.72;;
34902;SDS011;21114;44.840;0.214;2023-06-10T06:58:20;7.25;;;6.47;;
34902;SDS011;21114;44.840;0.214;2023-06-10T07:00:46;7.25;;;6.20;;
34902;SDS011;21114;44.840;0.214;2023-06-10T07:03:12;9.55;;;5.80;;
34902;SDS011;21114;44.840;0.214;2023-06-10T07:05:38;9.68;;;6.22;;
34902;SDS011;21114;44.840;0.214;2023-06-10T07:08:04;5.88;;;5.05;;
34902;SDS011;21114;44.840;0.214;2023-06-10T07:10:30;7.85;;;4.60;;
34902;SDS011;21114;44.840;0.214;2023-06-10T07:12:56;9.15;;;6.18;;
34902;SDS011;21114;44.840;0.214;2023-06-10T07:15:22;7.85;;;5.32;;
34902;SDS011;21114;44.840;0.214;2023-06-10T07:17:48;5.75;;;5.00;;
34902;SDS011;21114;44.840;0.214;2023-06-10T07:20:15;8.68;;;5.35;;
34902;SDS011;21114;44.840;0.214;2023-06-10T07:23:26;7.07;;;5.18;;
34902;SDS011;21114;44.840;0.214;2023-06-10T07:25:52;5.20;;;4.72;;
34902;SDS011;21114;44.840;0.214;2023-06-10T07:28:18;6.45;;;5.85;;
34902;SDS011;21114;44.840;0.214;2023-06-10T07:30:45;8.70;;;5.53;;
34902;SDS011;21114;44.840;0.214;2023-06-10T07:33:11;8.02;;;5.82;;
34902;SDS011;21114;44.840;0.214;2023-06-10T07:35:37;6.43;;;5.80;;
34902;SDS011;21114;44.840;0.214;2023-06-10T07:38:53;6.38;;;5.45;;
34902;SDS011;21114;44.840;0.214;2023-06-10T07:42:08;8.38;;;5.82;;
34902;SDS011;21114;44.840;0.214;2023-06-10T07:45:22;9.88;;;5.47;;
34902;SDS011;21114;44.840;0.214;2023-06-10T07:47:49;8.20;;;5.40;;
34902;SDS011;21114;44.840;0.214;2023-06-10T07:50:15;6.00;;;5.40;;
34902;SDS011;21114;44.840;0.214;2023-06-10T07:53:30;6.18;;;5.55;;
34902;SDS011;21114;44.840;0.214;2023-06-10T07:56:44;7.00;;;5.10;;
34902;SDS011;21114;44.840;0.214;2023-06-10T07:59:10;7.28;;;5.32;;
34902;SDS011;21114;44.840;0.214;2023-06-10T08:01:36;7.68;;;4.93;;
34902;SDS011;21114;44.840;0.214;2023-06-10T08:04:04;5.93;;;4.88;;
34902;SDS011;21114;44.840;0.214;2023-06-10T08:07:19;6.72;;;5.55;;
34902;SDS011;21114;44.840;0.214;2023-06-10T08:09:45;7.45;;;5.45;;
34902;SDS011;21114;44.840;0.214;2023-06-10T08:12:35;7.93;;;5.15;;
34902;SDS011;21114;44.840;0.214;2023-06-10T08:15:02;5.82;;;5.10;;
34902;SDS011;21114;44.840;0.214;2023-06-10T08:18:18;12.52;;;6.00;;
34902;SDS011;21114;44.840;0.214;2023-06-10T08:20:44;5.95;;;4.88;;
34902;SDS011;21114;44.840;0.214;2023-06-10T08:23:10;8.50;;;5.32;;
34902;SDS011;21114;44.840;0.214;2023-06-10T08:25:36;5.95;;;4.70;;
34902;SDS011;21114;44.840;0.214;2023-06-10T08:28:19;6.18;;;4.95;;
34902;SDS011;21114;44.840;0.214;2023-06-10T08:31:28;8.93;;;5.38;;
34902;SDS011;21114;44.840;0.214;2023-06-10T08:33:54;7.60;;;5.97;;
34902;SDS011;21114;44.840;0.214;2023-06-10T08:36:20;5.22;;;4.25;;
34902;SDS011;21114;44.840;0.214;2023-06-10T08:38:47;7.85;;;5.13;;
34902;SDS011;21114;44.840;0.214;2023-06-10T08:41:14;5.70;;;4.68;;
34902;SDS011;21114;44.840;0.214;2023-06-10T08:44:32;5.80;;;4.53;;
34902;SDS011;21114;44.840;0.214;2023-06-10T12:45:27;4.80;;;4.23;;
34902;SDS011;21114;44.840;0.214;2023-06-10T12:48:31;2.58;;;2.38;;
34902;SDS011;21114;44.840;0.214;2023-06-10T12:50:58;3.70;;;3.40;;
34902;SDS011;21114;44.840;0.214;2023-06-10T12:53:25;3.63;;;2.40;;
34902;SDS011;21114;44.840;0.214;2023-06-10T12:56:39;2.85;;;2.22;;
34902;SDS011;21114;44.840;0.214;2023-06-10T12:59:06;3.00;;;2.70;;
34902;SDS011;21114;44.840;0.214;2023-06-10T13:01:32;5.07;;;3.03;;
34902;SDS011;21114;44.840;0.214;2023-06-10T13:03:58;3.00;;;2.80;;
34902;SDS011;21114;44.840;0.214;2023-06-10T13:06:24;3.35;;;3.05;;
34902;SDS011;21114;44.840;0.214;2023-06-10T13:08:51;2.92;;;2.67;;
34902;SDS011;21114;44.840;0.214;2023-06-10T13:11:17;3.00;;;2.80;;
34902;SDS011;21114;44.840;0.214;2023-06-10T13:13:43;2.70;;;2.50;;
34902;SDS011;21114;44.840;0.214;2023-06-10T13:16:11;3.53;;;2.40;;
34902;SDS011;21114;44.840;0.214;2023-06-10T13:18:37;2.65;;;2.45;;
34902;SDS011;21114;44.840;0.214;2023-06-10T13:21:03;2.80;;;2.50;;
34902;SDS011;21114;44.840;0.214;2023-06-10T13:24:18;2.45;;;2.10;;
34902;SDS011;21114;44.840;0.214;2023-06-10T13:26:45;2.40;;;2.20;;
34902;SDS011;21114;44.840;0.214;2023-06-10T13:29:11;4.55;;;2.63;;
34902;SDS011;21114;44.840;0.214;2023-06-10T13:31:39;4.95;;;3.38;;
34902;SDS011;21114;44.840;0.214;2023-06-10T13:34:05;6.18;;;3.78;;
34902;SDS011;21114;44.840;0.214;2023-06-10T13:36:32;4.97;;;3.25;;
34902;SDS011;21114;44.840;0.214;2023-06-10T13:38:58;2.60;;;2.40;;
34902;SDS011;21114;44.840;0.214;2023-06-10T13:41:24;2.75;;;2.45;;
34902;SDS011;21114;44.840;0.214;2023-06-10T13:43:50;4.25;;;2.50;;
34902;SDS011;21114;44.840;0.214;2023-06-10T13:46:16;3.95;;;2.92;;
34902;SDS011;21114;44.840;0.214;2023-06-10T13:48:43;2.83;;;2.42;;
34902;SDS011;21114;44.840;0.214;2023-06-10T13:51:09;4.53;;;2.60;;
34902;SDS011;21114;44.840;0.214;2023-06-10T13:53:36;4.82;;;2.83;;
34902;SDS011;21114;44.840;0.214;2023-06-10T13:56:02;3.03;;;2.70;;
34902;SDS011;21114;44.840;0.214;2023-06-10T13:58:28;2.72;;;2.47;;
34902;SDS011;21114;44.840;0.214;2023-06-10T14:00:54;10.57;;;2.10;;
34902;SDS011;21114;44.840;0.214;2023-06-10T14:03:21;3.05;;;2.03;;
34902;SDS011;21114;44.840;0.214;2023-06-10T14:05:47;2.10;;;2.00;;
34902;SDS011;21114;44.840;0.214;2023-06-10T14:08:13;2.65;;;2.10;;
34902;SDS011;21114;44.840;0.214;2023-06-10T14:10:39;3.13;;;1.98;;
34902;SDS011;21114;44.840;0.214;2023-06-10T14:13:05;3.45;;;2.13;;
34902;SDS011;21114;44.840;0.214;2023-06-10T14:15:32;1.70;;;1.60;;
34902;SDS011;21114;44.840;0.214;2023-06-10T14:17:58;2.90;;;2.40;;
34902;SDS011;21114;44.840;0.214;2023-06-10T14:20:24;2.60;;;2.17;;
34902;SDS011;21114;44.840;0.214;2023-06-10T14:22:51;5.00;;;2.47;;
34902;SDS011;21114;44.840;0.214;2023-06-10T14:25:17;2.25;;;1.90;;
34902;SDS011;21114;44.840;0.214;2023-06-10T14:27:44;2.30;;;2.10;;
34902;SDS011;21114;44.840;0.214;2023-06-10T14:30:12;3.20;;;2.08;;
34902;SDS011;21114;44.840;0.214;2023-06-10T14:33:26;2.03;;;1.83;;
34902;SDS011;21114;44.840;0.214;2023-06-10T14:35:52;2.28;;;2.08;;
34902;SDS011;21114;44.840;0.214;2023-06-10T14:38:18;3.17;;;2.25;;
34902;SDS011;21114;44.840;0.214;2023-06-10T14:40:44;1.77;;;1.65;;
34902;SDS011;21114;44.840;0.214;2023-06-10T14:43:10;3.00;;;1.73;;
34902;SDS011;21114;44.840;0.214;2023-06-10T14:45:37;2.60;;;2.17;;
34902;SDS011;21114;44.840;0.214;2023-06-10T14:48:03;2.65;;;2.20;;
34902;SDS011;21114;44.840;0.214;2023-06-10T14:51:18;1.95;;;1.70;;
34902;SDS011;21114;44.840;0.214;2023-06-10T14:53:45;3.13;;;2.72;;
34902;SDS011;21114;44.840;0.214;2023-06-10T14:56:11;2.05;;;1.83;;
34902;SDS011;21114;44.840;0.214;2023-06-10T14:58:38;1.50;;;1.40;;
34902;SDS011;21114;44.840;0.214;2023-06-10T15:01:04;1.85;;;1.67;;
34902;SDS011;21114;44.840;0.214;2023-06-10T15:03:30;10.48;;;3.63;;
34902;SDS011;21114;44.840;0.214;2023-06-10T15:05:56;2.67;;;2.47;;
34902;SDS011;21114;44.840;0.214;2023-06-10T15:09:10;2.10;;;1.98;;
34902;SDS011;21114;44.840;0.214;2023-06-10T15:11:36;2.05;;;1.80;;
34902;SDS011;21114;44.840;0.214;2023-06-10T15:14:52;2.55;;;1.85;;
34902;SDS011;21114;44.840;0.214;2023-06-10T15:17:18;3.55;;;2.35;;
34902;SDS011;21114;44.840;0.214;2023-06-10T15:19:44;2.85;;;1.67;;
34902;SDS011;21114;44.840;0.214;2023-06-10T15:22:11;1.70;;;1.50;;
34902;SDS011;21114;44.840;0.214;2023-06-10T15:24:38;3.10;;;1.77;;
34902;SDS011;21114;44.840;0.214;2023-06-10T15:27:04;2.13;;;1.95;;
34902;SDS011;21114;44.840;0.214;2023-06-10T15:30:18;2.22;;;1.80;;
34902;SDS011;21114;44.840;0.214;2023-06-10T15:32:44;1.95;;;1.85;;
34902;SDS011;21114;44.840;0.214;2023-06-10T15:35:10;2.53;;;2.00;;
34902;SDS011;21114;44.840;0.214;2023-06-10T15:37:37;2.72;;;1.38;;
34902;SDS011;21114;44.840;0.214;2023-06-10T15:40:03;1.92;;;1.83;;
34902;SDS011;21114;44.840;0.214;2023-06-10T15:43:18;2.35;;;1.55;;
34902;SDS011;21114;44.840;0.214;2023-06-10T15:45:45;1.50;;;1.20;;
34902;SDS011;21114;44.840;0.214;2023-06-10T15:48:11;1.90;;;1.48;;
34902;SDS011;21114;44.840;0.214;2023-06-10T15:50:37;1.27;;;1.17;;
34902;SDS011;21114;44.840;0.214;2023-06-10T15:53:03;1.60;;;1.50;;
34902;SDS011;21114;44.840;0.214;2023-06-10T15:55:29;3.53;;;2.40;;
34902;SDS011;21114;44.840;0.214;2023-06-10T15:57:55;2.58;;;1.15;;
34902;SDS011;21114;44.840;0.214;2023-06-10T16:00:25;1.17;;;0.93;;
34902;SDS011;21114;44.840;0.214;2023-06-10T16:02:51;1.25;;;0.95;;
34902;SDS011;21114;44.840;0.214;2023-06-10T16:05:17;1.73;;;1.63;;
34902;SDS011;21114;44.840;0.214;2023-06-10T16:07:43;3.72;;;1.20;;
34902;SDS011;21114;44.840;0.214;2023-06-10T16:10:10;1.23;;;1.10;;
34902;SDS011;21114;44.840;0.214;2023-06-10T16:12:36;1.95;;;1.45;;
34902;SDS011;21114;44.840;0.214;2023-06-10T16:15:02;2.65;;;1.50;;
34902;SDS011;21114;44.840;0.214;2023-06-10T16:17:28;3.38;;;1.58;;
34902;SDS011;21114;44.840;0.214;2023-06-10T16:19:54;1.30;;;1.10;;
34902;SDS011;21114;44.840;0.214;2023-06-10T16:22:20;1.30;;;1.20;;
34902;SDS011;21114;44.840;0.214;2023-06-10T16:24:46;2.33;;;1.35;;
34902;SDS011;21114;44.840;0.214;2023-06-10T16:27:12;2.35;;;2.05;;
34902;SDS011;21114;44.840;0.214;2023-06-10T16:29:38;1.38;;;1.27;;
34902;SDS011;21114;44.840;0.214;2023-06-10T16:32:05;2.17;;;1.23;;
34902;SDS011;21114;44.840;0.214;2023-06-10T16:35:19;3.00;;;1.50;;
34902;SDS011;21114;44.840;0.214;2023-06-10T16:37:45;1.23;;;1.10;;
34902;SDS011;21114;44.840;0.214;2023-06-10T16:40:11;2.15;;;1.20;;
34902;SDS011;21114;44.840;0.214;2023-06-10T16:42:37;1.38;;;1.10;;
34902;SDS011;21114;44.840;0.214;2023-06-10T16:45:04;1.48;;;1.25;;
34902;SDS011;21114;44.840;0.214;2023-06-10T16:47:30;1.48;;;1.23;;
34902;SDS011;21114;44.840;0.214;2023-06-10T16:49:56;3.35;;;2.08;;
34902;SDS011;21114;44.840;0.214;2023-06-10T16:52:22;2.10;;;1.83;;
34902;SDS011;21114;44.840;0.214;2023-06-10T16:54:48;3.00;;;2.65;;
34902;SDS011;21114;44.840;0.214;2023-06-10T16:57:14;7.90;;;3.55;;
34902;SDS011;21114;44.840;0.214;2023-06-10T16:59:40;2.67;;;1.70;;
34902;SDS011;21114;44.840;0.214;2023-06-10T17:02:06;5.05;;;2.28;;
34902;SDS011;21114;44.840;0.214;2023-06-10T17:04:32;3.63;;;2.20;;
34902;SDS011;21114;44.840;0.214;2023-06-10T17:06:58;2.90;;;2.47;;
34902;SDS011;21114;44.840;0.214;2023-06-10T17:09:25;4.13;;;1.83;;
34902;SDS011;21114;44.840;0.214;2023-06-10T17:12:39;2.08;;;1.52;;
34902;SDS011;21114;44.840;0.214;2023-06-10T17:15:07;3.95;;;2.08;;
34902;SDS011;21114;44.840;0.214;2023-06-10T17:18:21;5.65;;;2.35;;
34902;SDS011;21114;44.840;0.214;2023-06-10T17:20:48;4.60;;;2.50;;
34902;SDS011;21114;44.840;0.214;2023-06-10T17:23:14;2.17;;;1.83;;
34902;SDS011;21114;44.840;0.214;2023-06-10T17:25:40;2.40;;;2.00;;
34902;SDS011;21114;44.840;0.214;2023-06-10T17:28:06;3.58;;;1.80;;
34902;SDS011;21114;44.840;0.214;2023-06-10T17:30:32;2.67;;;2.08;;
34902;SDS011;21114;44.840;0.214;2023-06-10T17:32:58;2.60;;;2.22;;
34902;SDS011;21114;44.840;0.214;2023-06-10T17:35:24;2.08;;;1.88;;
34902;SDS011;21114;44.840;0.214;2023-06-10T17:37:50;5.30;;;2.28;;
34902;SDS011;21114;44.840;0.214;2023-06-10T17:40:16;3.22;;;1.95;;
34902;SDS011;21114;44.840;0.214;2023-06-10T17:42:43;2.63;;;2.40;;
34902;SDS011;21114;44.840;0.214;2023-06-10T17:45:09;2.08;;;1.77;;
34902;SDS011;21114;44.840;0.214;2023-06-10T17:48:23;6.93;;;3.22;;
34902;SDS011;21114;44.840;0.214;2023-06-10T17:50:50;4.28;;;2.55;;
34902;SDS011;21114;44.840;0.214;2023-06-10T17:53:16;4.75;;;2.53;;
34902;SDS011;21114;44.840;0.214;2023-06-10T17:55:42;3.50;;;2.42;;
34902;SDS011;21114;44.840;0.214;2023-06-10T17:58:08;3.65;;;2.28;;
34902;SDS011;21114;44.840;0.214;2023-06-10T18:00:34;2.58;;;2.35;;
34902;SDS011;21114;44.840;0.214;2023-06-10T18:03:00;2.55;;;1.63;;
34902;SDS011;21114;44.840;0.214;2023-06-10T18:05:26;2.78;;;2.58;;
34902;SDS011;21114;44.840;0.214;2023-06-10T18:07:52;2.50;;;2.20;;
34902;SDS011;21114;44.840;0.214;2023-06-10T18:10:18;2.47;;;2.28;;
34902;SDS011;21114;44.840;0.214;2023-06-10T18:12:45;3.45;;;2.40;;
34902;SDS011;21114;44.840;0.214;2023-06-10T18:15:11;4.22;;;2.30;;
34902;SDS011;21114;44.840;0.214;2023-06-10T18:17:37;2.38;;;2.17;;
34902;SDS011;21114;44.840;0.214;2023-06-10T18:20:03;1.92;;;1.73;;
34902;SDS011;21114;44.840;0.214;2023-06-10T18:23:18;2.15;;;1.95;;
34902;SDS011;21114;44.840;0.214;2023-06-10T18:25:44;2.00;;;1.85;;
34902;SDS011;21114;44.840;0.214;2023-06-10T18:28:10;2.60;;;2.38;;
34902;SDS011;21114;44.840;0.214;2023-06-10T18:30:36;2.00;;;1.77;;
34902;SDS011;21114;44.840;0.214;2023-06-10T18:33:02;2.58;;;2.38;;
34902;SDS011;21114;44.840;0.214;2023-06-10T18:35:28;3.33;;;2.08;;
34902;SDS011;21114;44.840;0.214;2023-06-10T18:37:54;2.10;;;1.90;;
34902;SDS011;21114;44.840;0.214;2023-06-10T18:40:20;3.75;;;3.03;;
34902;SDS011;21114;44.840;0.214;2023-06-10T18:42:46;2.30;;;1.90;;
34902;SDS011;21114;44.840;0.214;2023-06-10T18:45:12;2.53;;;2.13;;
34902;SDS011;21114;44.840;0.214;2023-06-10T18:47:38;3.70;;;2.53;;
34902;SDS011;21114;44.840;0.214;2023-06-10T18:50:05;2.72;;;1.73;;
34902;SDS011;21114;44.840;0.214;2023-06-10T18:53:19;4.00;;;2.63;;
34902;SDS011;21114;44.840;0.214;2023-06-10T18:55:45;3.47;;;3.17;;
34902;SDS011;21114;44.840;0.214;2023-06-10T18:58:11;2.92;;;2.65;;
34902;SDS011;21114;44.840;0.214;2023-06-10T19:00:37;2.38;;;1.90;;
34902;SDS011;21114;44.840;0.214;2023-06-10T19:03:03;2.78;;;1.80;;
34902;SDS011;21114;44.840;0.214;2023-06-10T19:05:29;4.75;;;3.38;;
34902;SDS011;21114;44.840;0.214;2023-06-10T19:07:55;2.97;;;2.25;;
34902;SDS011;21114;44.840;0.214;2023-06-10T19:10:21;2.15;;;1.80;;
34902;SDS011;21114;44.840;0.214;2023-06-10T19:12:48;1.88;;;1.67;;
34902;SDS011;21114;44.840;0.214;2023-06-10T19:15:14;1.70;;;1.40;;
34902;SDS011;21114;44.840;0.214;2023-06-10T19:17:40;1.60;;;1.27;;
34902;SDS011;21114;44.840;0.214;2023-06-10T19:20:06;2.50;;;1.75;;
34902;SDS011;21114;44.840;0.214;2023-06-10T19:23:21;1.33;;;1.17;;
34902;SDS011;21114;44.840;0.214;2023-06-10T19:25:47;2.38;;;1.38;;
34902;SDS011;21114;44.840;0.214;2023-06-10T19:28:13;1.40;;;0.80;;
34902;SDS011;21114;44.840;0.214;2023-06-10T19:30:39;2.10;;;0.90;;
34902;SDS011;21114;44.840;0.214;2023-06-10T19:33:05;1.27;;;1.15;;
34902;SDS011;21114;44.840;0.214;2023-06-10T19:35:31;1.30;;;1.15;;
34902;SDS011;21114;44.840;0.214;2023-06-10T19:37:58;2.75;;;1.90;;
34902;SDS011;21114;44.840;0.214;2023-06-10T19:40:24;1.40;;;1.00;;
34902;SDS011;21114;44.840;0.214;2023-06-10T19:43:36;1.35;;;0.80;;
34902;SDS011;21114;44.840;0.214;2023-06-10T19:46:02;1.75;;;1.33;;
34902;SDS011;21114;44.840;0.214;2023-06-10T19:48:28;2.88;;;1.10;;
34902;SDS011;21114;44.840;0.214;2023-06-10T19:50:54;1.00;;;0.90;;
34902;SDS011;21114;44.840;0.214;2023-06-10T19:53:20;1.30;;;1.20;;
34902;SDS011;21114;44.840;0.214;2023-06-10T19:55:46;3.60;;;1.27;;
34902;SDS011;21114;44.840;0.214;2023-06-10T19:58:12;1.67;;;1.17;;
34902;SDS011;21114;44.840;0.214;2023-06-10T20:00:38;2.78;;;1.65;;
34902;SDS011;21114;44.840;0.214;2023-06-10T20:03:04;1.88;;;1.73;;